Time;durP1;ratioP1;P1;durP2;ratioP2;P2;SDS_P1;SDS_P2;PMS_P1;PMS_P2;Temp;Humidity;BMP_temperature;BMP_pressure;BME280_temperature;BME280_humidity;BME280_pressure;Samples;Min_cycle;Max_cycle;Signal;HPM_P1;HPM_P2
2022/04/17 00:00:48;;;;;;;3.63;2.60;;;5.30;99.90;;;;;;4257269;27;20638;-62
2022/04/17 00:02:49;;;;;;;2.77;1.90;;;5.30;99.90;;;;;;4258099;27;20299;-60
2022/04/17 00:04:50;;;;;;;3.60;2.60;;;5.30;99.90;;;;;;4257217;27;20272;-63
2022/04/17 00:06:51;;;;;;;1.83;1.60;;;5.30;99.90;;;;;;4257199;27;20270;-56
2022/04/17 00:08:53;;;;;;;2.10;1.90;;;5.30;99.90;;;;;;4260921;27;20660;-62
2022/04/17 00:10:54;;;;;;;1.77;1.53;;;5.30;99.90;;;;;;4259680;27;20302;-56
2022/04/17 00:12:55;;;;;;;4.07;2.57;;;5.30;99.90;;;;;;4261681;27;20794;-58
2022/04/17 00:14:56;;;;;;;2.93;1.93;;;5.30;99.90;;;;;;4260371;27;20262;-54
2022/04/17 00:16:57;;;;;;;2.77;1.70;;;5.30;99.90;;;;;;4261250;27;20259;-58
2022/04/17 00:18:58;;;;;;;2.60;1.90;;;5.30;99.90;;;;;;4260452;27;20306;-57
2022/04/17 00:21:00;;;;;;;4.47;2.50;;;5.30;99.90;;;;;;4261431;27;20296;-57
2022/04/17 00:23:01;;;;;;;3.90;3.20;;;5.30;99.90;;;;;;4271005;27;20896;-58
2022/04/17 00:25:02;;;;;;;3.90;2.27;;;5.30;99.90;;;;;;4278303;27;20266;-61
2022/04/17 00:27:04;;;;;;;3.07;1.70;;;5.30;99.90;;;;;;4277895;27;20936;-59
2022/04/17 00:29:05;;;;;;;2.37;1.77;;;5.30;99.90;;;;;;4278601;27;20310;-57
2022/04/17 00:31:06;;;;;;;2.83;1.90;;;5.20;99.90;;;;;;4275956;27;20298;-66
2022/04/17 00:33:07;;;;;;;4.70;2.80;;;5.30;99.90;;;;;;4278478;27;20738;-58
2022/04/17 00:35:10;;;;;;;2.47;2.20;;;5.30;99.90;;;;;;4260578;27;21263;-58
2022/04/17 00:37:11;;;;;;;2.10;1.60;;;5.30;99.90;;;;;;4260133;27;20825;-60
2022/04/17 00:39:12;;;;;;;2.90;2.00;;;5.30;99.90;;;;;;4261060;27;20397;-62
2022/04/17 00:41:13;;;;;;;2.40;1.87;;;5.30;99.90;;;;;;4259042;27;20758;-56
2022/04/17 00:43:22;;;;;;;1.97;1.60;;;5.30;99.90;;;;;;4260717;27;20323;-53
2022/04/17 00:45:24;;;;;;;3.63;2.47;;;5.20;99.90;;;;;;4268601;27;21174;-53
2022/04/17 00:47:25;;;;;;;3.00;2.20;;;5.20;99.90;;;;;;4276577;27;20315;-66
2022/04/17 00:49:26;;;;;;;2.23;2.00;;;5.20;99.90;;;;;;4275115;27;20290;-59
2022/04/17 00:51:27;;;;;;;2.80;1.90;;;5.10;99.90;;;;;;4278302;27;20290;-55
2022/04/17 00:53:28;;;;;;;3.27;2.20;;;5.10;99.90;;;;;;4275973;27;20832;-56
2022/04/17 00:55:30;;;;;;;2.40;1.90;;;5.10;99.90;;;;;;4278596;27;20715;-53
2022/04/17 00:57:31;;;;;;;3.23;2.60;;;5.00;99.90;;;;;;4277253;27;20318;-53
2022/04/17 00:59:33;;;;;;;3.10;2.17;;;5.00;99.90;;;;;;4277011;27;20274;-57
2022/04/17 01:01:36;;;;;;;2.13;1.87;;;5.00;99.90;;;;;;4276546;27;20299;-54
2022/04/17 01:03:37;;;;;;;2.47;1.80;;;5.00;99.90;;;;;;4278027;27;20299;-57
2022/04/17 01:05:42;;;;;;;4.10;2.20;;;4.90;99.90;;;;;;4275936;27;20747;-56
2022/04/17 01:07:44;;;;;;;2.53;2.00;;;4.90;99.90;;;;;;4276141;27;20812;-58
2022/04/17 01:09:46;;;;;;;1.73;1.60;;;4.90;99.90;;;;;;4259673;27;20255;-57
2022/04/17 01:11:48;;;;;;;4.63;1.90;;;4.90;99.90;;;;;;4259927;27;20283;-56
2022/04/17 01:13:50;;;;;;;3.07;2.37;;;4.90;99.90;;;;;;4260497;27;20267;-57
2022/04/17 01:15:54;;;;;;;3.90;2.00;;;4.90;99.90;;;;;;4259139;27;20303;-56
2022/04/17 01:17:55;;;;;;;2.43;2.07;;;4.90;99.90;;;;;;4259774;27;20331;-56
2022/04/17 01:19:57;;;;;;;2.60;2.40;;;4.90;99.90;;;;;;4258285;27;20307;-54
2022/04/17 01:21:59;;;;;;;3.37;2.23;;;4.90;99.90;;;;;;4259760;27;20299;-59
2022/04/17 01:28:40;;;;;;;4.15;2.50;;;4.90;99.90;;;;;;4259650;27;20271;-53
2022/04/17 01:30:41;;;;;;;3.50;2.03;;;4.90;99.90;;;;;;4260577;27;20034;-62
2022/04/17 01:32:43;;;;;;;4.67;2.57;;;4.90;99.90;;;;;;4260098;27;20286;-57
2022/04/17 01:34:44;;;;;;;2.63;2.37;;;4.90;99.90;;;;;;4260413;27;20846;-63
2022/04/17 01:36:48;;;;;;;2.57;1.97;;;4.90;99.90;;;;;;4258545;27;20561;-60
2022/04/17 01:38:49;;;;;;;2.33;2.00;;;4.90;99.90;;;;;;4260027;27;20270;-55
2022/04/17 01:40:50;;;;;;;2.10;1.90;;;4.90;99.90;;;;;;4259286;27;20331;-54
2022/04/17 01:42:51;;;;;;;2.53;2.30;;;4.80;99.90;;;;;;4260191;27;20323;-58
2022/04/17 01:44:52;;;;;;;4.73;3.20;;;4.90;99.90;;;;;;4259015;27;20258;-57
2022/04/17 01:46:53;;;;;;;2.87;2.30;;;4.80;99.90;;;;;;4259640;27;20270;-57
2022/04/17 01:48:54;;;;;;;3.00;2.27;;;4.80;99.90;;;;;;4258659;27;20717;-56
2022/04/17 01:50:55;;;;;;;2.90;2.20;;;4.80;99.90;;;;;;4261029;27;20254;-58
2022/04/17 01:53:00;;;;;;;2.90;2.33;;;4.80;99.90;;;;;;4275801;27;20318;-64
2022/04/17 01:55:01;;;;;;;2.43;2.10;;;4.80;99.90;;;;;;4275407;27;20262;-56
2022/04/17 01:57:02;;;;;;;2.83;2.40;;;4.80;99.90;;;;;;4259275;27;20271;-57
2022/04/17 01:59:05;;;;;;;3.10;2.43;;;4.80;99.90;;;;;;4258373;27;20652;-55
2022/04/17 02:01:06;;;;;;;3.67;2.33;;;4.80;99.90;;;;;;4261278;27;20286;-58
2022/04/17 02:03:07;;;;;;;3.17;2.27;;;4.80;99.90;;;;;;4258801;27;20267;-56
2022/04/17 02:05:09;;;;;;;3.57;2.20;;;4.80;99.90;;;;;;4260378;27;20251;-58
2022/04/17 02:07:10;;;;;;;4.33;2.43;;;4.70;99.90;;;;;;4258048;27;20266;-59
2022/04/17 02:09:13;;;;;;;4.30;2.63;;;4.70;99.90;;;;;;4259631;27;20255;-62
2022/04/17 02:11:14;;;;;;;2.80;2.20;;;4.70;99.90;;;;;;4258400;27;20334;-56
2022/04/17 02:13:16;;;;;;;3.87;2.60;;;4.70;99.90;;;;;;4260213;27;20335;-60
2022/04/17 02:15:17;;;;;;;2.87;2.50;;;4.70;99.90;;;;;;4257793;27;20271;-54
2022/04/17 02:17:18;;;;;;;3.03;2.17;;;4.70;99.90;;;;;;4267966;27;20338;-57
2022/04/17 02:19:19;;;;;;;3.53;2.47;;;4.70;99.90;;;;;;4275723;27;20238;-58
2022/04/17 02:21:21;;;;;;;2.40;2.10;;;4.70;99.90;;;;;;4257159;27;20300;-52
2022/04/17 02:23:22;;;;;;;4.57;2.37;;;4.70;99.90;;;;;;4276002;27;20258;-57
2022/04/17 02:25:23;;;;;;;3.13;2.43;;;4.70;99.90;;;;;;4275880;27;20269;-57
2022/04/17 02:27:24;;;;;;;2.80;2.40;;;4.70;99.90;;;;;;4276507;27;20285;-61
2022/04/17 02:29:25;;;;;;;2.40;2.20;;;4.70;99.90;;;;;;4274635;27;20274;-57
2022/04/17 02:31:27;;;;;;;2.67;2.40;;;4.70;99.90;;;;;;4275136;27;20844;-56
2022/04/17 02:33:29;;;;;;;2.90;2.37;;;4.70;99.90;;;;;;4273607;27;20269;-57
2022/04/17 02:35:30;;;;;;;3.37;2.20;;;4.70;99.90;;;;;;4276521;27;20667;-57
2022/04/17 02:37:31;;;;;;;4.07;2.50;;;4.60;99.90;;;;;;4274967;27;20262;-57
2022/04/17 02:39:33;;;;;;;4.00;2.90;;;4.60;99.90;;;;;;4276598;27;20295;-57
2022/04/17 02:41:34;;;;;;;3.23;2.40;;;4.60;99.90;;;;;;4273192;27;20655;-58
2022/04/17 02:43:35;;;;;;;5.57;2.77;;;4.60;99.90;;;;;;4275579;27;20381;-55
2022/04/17 02:45:36;;;;;;;3.37;2.30;;;4.60;99.90;;;;;;4275319;27;21165;-63
2022/04/17 02:47:43;;;;;;;4.70;2.90;;;4.60;99.90;;;;;;4276090;27;20308;-52
2022/04/17 02:49:45;;;;;;;3.17;2.70;;;4.60;99.90;;;;;;4274849;27;20274;-57
2022/04/17 02:51:46;;;;;;;4.70;2.97;;;4.60;99.90;;;;;;4275804;27;20290;-56
2022/04/17 02:53:47;;;;;;;7.63;2.73;;;4.60;99.90;;;;;;4256574;27;20262;-62
2022/04/17 02:55:51;;;;;;;3.03;2.60;;;4.60;99.90;;;;;;4269280;27;20676;-55
2022/04/17 02:57:52;;;;;;;5.43;3.23;;;4.60;99.90;;;;;;4257398;27;20311;-58
2022/04/17 02:59:53;;;;;;;5.23;3.43;;;4.50;99.90;;;;;;4258258;27;20667;-58
2022/04/17 03:06:34;;;;;;;4.90;3.00;;;4.50;99.90;;;;;;4258720;27;20039;-58
2022/04/17 03:08:36;;;;;;;4.90;3.37;;;4.50;99.90;;;;;;4257423;27;20270;-57
2022/04/17 03:10:42;;;;;;;4.47;3.23;;;4.50;99.90;;;;;;4258221;27;21190;-54
2022/04/17 03:12:43;;;;;;;2.80;2.43;;;4.60;99.90;;;;;;4256413;27;20286;-56
2022/04/17 03:14:46;;;;;;;3.97;2.93;;;4.60;99.90;;;;;;4258365;27;20263;-57
2022/04/17 03:16:47;;;;;;;4.70;3.20;;;4.60;99.90;;;;;;4257615;27;20271;-64
2022/04/17 03:18:49;;;;;;;3.57;3.00;;;4.60;99.90;;;;;;4259735;27;20754;-53
2022/04/17 03:20:50;;;;;;;3.30;2.53;;;4.50;99.90;;;;;;4256786;27;20343;-59
2022/04/17 03:22:51;;;;;;;3.53;3.00;;;4.50;99.90;;;;;;4258708;27;20254;-50
2022/04/17 03:24:52;;;;;;;5.70;3.77;;;4.50;99.90;;;;;;4257898;27;20327;-64
2022/04/17 03:26:53;;;;;;;4.63;3.30;;;4.50;99.90;;;;;;4261167;27;20270;-53
2022/04/17 03:28:55;;;;;;;3.50;2.97;;;4.50;99.90;;;;;;4274595;27;20254;-59
2022/04/17 03:30:56;;;;;;;3.83;3.37;;;4.50;99.90;;;;;;4275025;27;20778;-69
2022/04/17 03:32:59;;;;;;;3.57;3.10;;;4.50;99.90;;;;;;4273323;27;20294;-57
2022/04/17 03:35:01;;;;;;;3.97;3.07;;;4.50;99.90;;;;;;4273424;27;20334;-57
2022/04/17 03:37:03;;;;;;;4.73;3.40;;;4.50;99.90;;;;;;4274010;27;20311;-56
2022/04/17 03:39:06;;;;;;;3.37;2.83;;;4.50;99.90;;;;;;4273969;27;20334;-57
2022/04/17 03:41:07;;;;;;;3.80;2.93;;;4.50;99.90;;;;;;4275226;27;20262;-51
2022/04/17 03:43:08;;;;;;;4.47;3.23;;;4.50;99.90;;;;;;4273338;27;20266;-56
2022/04/17 03:45:17;;;;;;;4.87;3.50;;;4.50;99.90;;;;;;4274882;27;20270;-52
2022/04/17 03:47:18;;;;;;;3.87;2.80;;;4.50;99.90;;;;;;4273738;27;20262;-53
2022/04/17 03:49:19;;;;;;;3.57;2.87;;;4.50;99.90;;;;;;4272770;27;20286;-62
2022/04/17 03:51:20;;;;;;;4.10;3.37;;;4.50;99.90;;;;;;4274167;27;20307;-57
2022/04/17 03:53:21;;;;;;;3.87;3.37;;;4.50;99.90;;;;;;4275666;27;20327;-57
2022/04/17 03:55:22;;;;;;;4.27;3.67;;;4.50;99.90;;;;;;4273434;27;20286;-54
2022/04/17 03:57:23;;;;;;;5.03;3.50;;;4.50;99.90;;;;;;4275519;27;20335;-55
2022/04/17 03:59:25;;;;;;;3.77;3.17;;;4.50;99.90;;;;;;4274338;27;21152;-62
2022/04/17 04:01:26;;;;;;;5.03;3.83;;;4.50;99.90;;;;;;4273143;27;20278;-60
2022/04/17 04:03:28;;;;;;;3.67;3.30;;;4.50;99.90;;;;;;4273524;27;20278;-57
2022/04/17 04:05:31;;;;;;;4.80;3.83;;;4.60;99.90;;;;;;4256474;27;20323;-57
2022/04/17 04:07:32;;;;;;;4.30;2.97;;;4.50;99.90;;;;;;4273826;27;20388;-57
2022/04/17 04:09:33;;;;;;;4.40;3.23;;;4.50;99.90;;;;;;4274963;27;20273;-62
2022/04/17 04:11:34;;;;;;;4.93;3.30;;;4.50;99.90;;;;;;4272381;27;20338;-52
2022/04/17 04:13:35;;;;;;;4.83;3.50;;;4.50;99.90;;;;;;4273835;27;20595;-68
2022/04/17 04:15:37;;;;;;;3.90;3.47;;;4.50;99.90;;;;;;4274049;27;20274;-57
2022/04/17 04:17:38;;;;;;;3.40;2.80;;;4.50;99.90;;;;;;4273127;27;20278;-65
2022/04/17 04:19:39;;;;;;;10.40;3.40;;;4.50;99.90;;;;;;4275419;27;20314;-60
2022/04/17 04:21:47;;;;;;;4.17;3.40;;;4.50;99.90;;;;;;4270865;27;20311;-58
2022/04/17 04:23:49;;;;;;;4.60;3.87;;;4.50;99.90;;;;;;4256149;27;20684;-58
2022/04/17 04:25:50;;;;;;;5.43;3.63;;;4.50;99.90;;;;;;4273945;27;20813;-55
2022/04/17 04:30:11;;;;;;;7.73;4.10;;;4.60;99.90;;;;;;4274334;27;20704;-60
2022/04/17 04:32:12;;;;;;;6.47;4.13;;;4.60;99.90;;;;;;4274319;27;20294;-58
2022/04/17 04:34:13;;;;;;;5.23;3.43;;;4.60;99.90;;;;;;4273779;27;20258;-58
2022/04/17 04:36:14;;;;;;;4.50;3.20;;;4.60;99.90;;;;;;4275218;27;20955;-57
2022/04/17 04:38:15;;;;;;;4.97;3.40;;;4.70;99.90;;;;;;4254831;27;20806;-60
2022/04/17 04:40:18;;;;;;;4.03;3.07;;;4.60;99.90;;;;;;4275016;27;20274;-54
2022/04/17 04:42:20;;;;;;;9.77;3.80;;;4.60;99.90;;;;;;4273312;27;20274;-59
2022/04/17 04:44:21;;;;;;;5.67;3.80;;;4.60;99.90;;;;;;4274506;27;20266;-58
2022/04/17 04:46:22;;;;;;;4.53;3.83;;;4.60;99.90;;;;;;4254508;27;20278;-55
2022/04/17 04:50:43;;;;;;;4.93;3.70;;;4.60;99.90;;;;;;4272535;27;21035;-56
2022/04/17 04:52:45;;;;;;;4.27;3.63;;;4.70;99.90;;;;;;4274100;27;20281;-59
2022/04/17 04:54:46;;;;;;;4.47;3.53;;;4.60;99.90;;;;;;4276223;27;20258;-56
2022/04/17 04:56:47;;;;;;;4.57;3.40;;;4.60;99.90;;;;;;4277320;27;20310;-55
2022/04/17 04:58:48;;;;;;;5.40;4.13;;;4.60;99.90;;;;;;4275693;27;20266;-57
2022/04/17 05:00:49;;;;;;;4.73;3.80;;;4.60;99.90;;;;;;4276867;27;20618;-56
2022/04/17 05:02:50;;;;;;;5.37;3.90;;;4.60;99.90;;;;;;4277950;27;20356;-53
2022/04/17 05:04:51;;;;;;;5.10;3.90;;;4.60;99.90;;;;;;4276334;27;20342;-55
2022/04/17 05:06:52;;;;;;;5.03;3.40;;;4.50;99.90;;;;;;4277324;27;20325;-59
2022/04/17 05:08:54;;;;;;;4.67;3.90;;;4.60;99.90;;;;;;4274063;27;20330;-57
2022/04/17 05:10:55;;;;;;;5.77;3.57;;;4.60;99.90;;;;;;4275982;27;20274;-54
2022/04/17 05:12:57;;;;;;;5.57;4.40;;;4.70;99.90;;;;;;4276238;27;20362;-57
2022/04/17 05:14:58;;;;;;;7.47;4.37;;;4.70;99.90;;;;;;4277988;27;20303;-54
2022/04/17 05:17:00;;;;;;;7.13;3.97;;;4.70;99.90;;;;;;4276714;27;20254;-55
2022/04/17 05:19:19;;;;;;;6.03;3.50;;;4.70;99.90;;;;;;4277820;27;20261;-53
2022/04/17 05:21:31;;;;;;;6.90;3.87;;;4.70;99.90;;;;;;4276493;27;20254;-58
2022/04/17 05:23:33;;;;;;;5.40;4.00;;;4.70;99.90;;;;;;4277847;27;20274;-53
2022/04/17 05:25:34;;;;;;;4.43;3.63;;;4.80;99.90;;;;;;4264609;27;20262;-60
2022/04/17 05:27:35;;;;;;;4.80;4.10;;;4.80;99.90;;;;;;4260072;27;20258;-59
2022/04/17 05:29:36;;;;;;;7.93;4.30;;;4.80;99.90;;;;;;4262748;27;20335;-56
2022/04/17 05:31:37;;;;;;;5.67;4.20;;;4.90;99.90;;;;;;4267488;27;20339;-60
2022/04/17 05:33:38;;;;;;;7.17;4.37;;;4.90;99.90;;;;;;4255408;27;20260;-56
2022/04/17 05:35:39;;;;;;;5.77;4.57;;;4.90;99.90;;;;;;4249773;27;20323;-57
2022/04/17 05:37:41;;;;;;;6.67;4.47;;;4.90;99.90;;;;;;4259566;27;20307;-57
2022/04/17 05:39:42;;;;;;;7.43;4.30;;;5.00;99.90;;;;;;4258682;27;20311;-60
2022/04/17 05:41:44;;;;;;;8.93;4.00;;;5.00;99.90;;;;;;4259382;27;20323;-57
2022/04/17 05:43:45;;;;;;;4.73;3.60;;;5.00;99.90;;;;;;4258449;27;20274;-61
2022/04/17 05:45:48;;;;;;;5.63;3.70;;;5.00;99.90;;;;;;4259404;27;20326;-59
2022/04/17 05:47:49;;;;;;;4.33;3.90;;;5.00;99.90;;;;;;4257539;27;20263;-59
2022/04/17 05:49:51;;;;;;;5.33;4.00;;;5.00;99.90;;;;;;4259841;27;20283;-51
2022/04/17 05:51:53;;;;;;;5.47;4.13;;;5.00;99.90;;;;;;4259844;27;20334;-61
2022/04/17 05:53:54;;;;;;;5.40;4.00;;;5.10;99.90;;;;;;4259153;27;20312;-68
2022/04/17 05:55:55;;;;;;;4.37;3.87;;;5.20;99.90;;;;;;4256775;27;20262;-70
2022/04/17 05:57:56;;;;;;;4.10;3.30;;;5.20;99.90;;;;;;4259019;27;20322;-58
2022/04/17 05:59:57;;;;;;;4.10;3.50;;;5.20;99.90;;;;;;4258511;27;20311;-61
2022/04/17 06:01:58;;;;;;;6.30;4.30;;;5.30;99.90;;;;;;4258871;27;20278;-67
2022/04/17 06:04:01;;;;;;;4.20;3.67;;;5.30;99.90;;;;;;4258905;27;20295;-64
2022/04/17 06:06:03;;;;;;;5.87;4.00;;;5.30;99.90;;;;;;4257868;27;20311;-62
2022/04/17 06:08:04;;;;;;;5.70;4.03;;;5.30;99.90;;;;;;4258944;27;20327;-55
2022/04/17 06:10:07;;;;;;;5.17;4.10;;;5.30;99.90;;;;;;4258009;27;20275;-57
2022/04/17 06:12:08;;;;;;;4.57;4.07;;;5.40;99.90;;;;;;4258885;27;20294;-63
2022/04/17 06:14:09;;;;;;;6.30;4.10;;;5.40;99.90;;;;;;4257636;27;20278;-64
2022/04/17 06:16:11;;;;;;;5.40;4.50;;;5.40;99.90;;;;;;4259125;27;20267;-61
2022/04/17 06:18:12;;;;;;;4.13;3.73;;;5.40;99.90;;;;;;4257533;27;20267;-66
2022/04/17 06:20:14;;;;;;;4.93;3.70;;;5.40;99.90;;;;;;4259372;27;20746;-67
2022/04/17 06:22:17;;;;;;;6.53;4.17;;;5.40;99.90;;;;;;4257385;27;20671;-69
2022/04/17 06:24:18;;;;;;;6.27;4.00;;;5.50;99.90;;;;;;4257225;27;20387;-60
2022/04/17 06:26:20;;;;;;;5.57;3.70;;;5.50;99.90;;;;;;4257670;27;20869;-58
2022/04/17 06:28:21;;;;;;;5.17;4.20;;;5.50;99.90;;;;;;4259058;27;20667;-58
2022/04/17 06:30:22;;;;;;;5.93;4.20;;;5.60;99.90;;;;;;4257300;27;20327;-55
2022/04/17 06:32:23;;;;;;;5.17;4.27;;;5.60;99.90;;;;;;4258389;27;20300;-66
2022/04/17 06:34:25;;;;;;;4.60;3.73;;;5.70;99.90;;;;;;4258677;27;20271;-55
2022/04/17 06:36:26;;;;;;;5.77;4.27;;;5.80;99.90;;;;;;4258095;27;20267;-65
2022/04/17 06:38:28;;;;;;;5.23;4.30;;;5.90;99.90;;;;;;4257898;27;20267;-58
2022/04/17 06:40:32;;;;;;;4.90;3.83;;;5.90;99.90;;;;;;4257834;27;20676;-61
2022/04/17 06:42:33;;;;;;;4.00;3.57;;;5.90;99.90;;;;;;4258095;27;20898;-68
2022/04/17 06:44:34;;;;;;;4.87;3.80;;;6.00;99.90;;;;;;4256664;27;20270;-63
2022/04/17 06:46:36;;;;;;;5.77;3.60;;;6.00;99.90;;;;;;4258619;27;20255;-65
2022/04/17 06:48:37;;;;;;;5.53;4.10;;;6.20;99.90;;;;;;4256715;27;20676;-58
2022/04/17 06:50:39;;;;;;;7.20;4.00;;;6.20;99.90;;;;;;4258102;27;20282;-63
2022/04/17 06:52:40;;;;;;;4.73;3.33;;;6.30;99.90;;;;;;4257286;27;20757;-66
2022/04/17 06:54:41;;;;;;;4.30;3.50;;;6.30;99.90;;;;;;4258659;27;20034;-66
2022/04/17 06:56:42;;;;;;;5.40;4.00;;;6.30;99.90;;;;;;4256616;27;20267;-67
2022/04/17 06:58:47;;;;;;;7.00;3.40;;;6.30;99.90;;;;;;4258814;27;20728;-68
2022/04/17 07:00:51;;;;;;;2.80;2.50;;;6.20;99.90;;;;;;4257054;27;20793;-56
2022/04/17 07:02:52;;;;;;;3.03;2.17;;;6.30;99.90;;;;;;4258165;27;20092;-58
2022/04/17 07:04:53;;;;;;;3.80;2.30;;;6.20;99.90;;;;;;4257619;27;20312;-57
2022/04/17 07:06:54;;;;;;;3.87;2.63;;;6.20;99.90;;;;;;4257682;27;20038;-59
2022/04/17 07:08:55;;;;;;;2.53;2.33;;;6.30;99.90;;;;;;4257319;27;20131;-59
2022/04/17 07:10:56;;;;;;;5.03;2.40;;;6.30;99.90;;;;;;4270525;27;20514;-53
2022/04/17 07:12:58;;;;;;;4.17;2.60;;;6.30;99.90;;;;;;4275059;27;20063;-60
2022/04/17 07:15:00;;;;;;;2.50;2.30;;;6.30;99.90;;;;;;4272472;27;20114;-62
2022/04/17 07:17:01;;;;;;;3.17;2.33;;;6.30;99.90;;;;;;4274963;27;20018;-57
2022/04/17 07:19:03;;;;;;;3.67;2.00;;;6.20;99.90;;;;;;4273983;27;20022;-66
2022/04/17 07:21:04;;;;;;;2.50;2.27;;;6.00;99.90;;;;;;4275015;27;20019;-58
2022/04/17 07:23:08;;;;;;;3.57;2.70;;;5.90;99.90;;;;;;4253970;27;20042;-59
2022/04/17 07:25:11;;;;;;;2.53;2.33;;;5.90;99.90;;;;;;4274795;27;20055;-57
2022/04/17 07:27:16;;;;;;;5.93;2.77;;;5.90;99.90;;;;;;4272976;27;20079;-70
2022/04/17 07:29:21;;;;;;;2.93;2.30;;;5.90;99.90;;;;;;4275287;27;20067;-65
2022/04/17 07:31:22;;;;;;;2.80;2.30;;;6.00;99.90;;;;;;4272931;27;20804;-64
2022/04/17 07:33:24;;;;;;;3.13;2.53;;;6.00;99.90;;;;;;4274153;27;20286;-68
2022/04/17 07:35:26;;;;;;;2.73;2.47;;;6.00;99.90;;;;;;4272880;27;20473;-60
2022/04/17 07:37:28;;;;;;;3.70;2.40;;;6.20;99.90;;;;;;4274765;27;20281;-63
2022/04/17 07:39:29;;;;;;;2.90;2.60;;;6.20;99.90;;;;;;4273921;27;20250;-61
2022/04/17 07:41:30;;;;;;;2.20;2.00;;;6.30;99.90;;;;;;4273918;27;20062;-60
2022/04/17 07:43:32;;;;;;;2.60;2.00;;;6.40;99.90;;;;;;4273787;27;20079;-62
2022/04/17 07:45:34;;;;;;;3.37;2.60;;;6.40;99.90;;;;;;4274089;27;20086;-71
2022/04/17 07:47:35;;;;;;;3.13;2.20;;;6.50;99.90;;;;;;4275128;27;20034;-64
2022/04/17 07:49:36;;;;;;;2.37;2.13;;;6.50;99.90;;;;;;4273343;27;20102;-65
2022/04/17 07:51:37;;;;;;;1.97;1.77;;;6.70;99.90;;;;;;4275671;27;20034;-58
2022/04/17 07:53:38;;;;;;;2.20;2.00;;;6.80;99.90;;;;;;4272987;27;20046;-67
2022/04/17 07:55:39;;;;;;;5.50;2.70;;;6.90;99.90;;;;;;4271980;27;20046;-65
2022/04/17 08:00:04;;;;;;;1.83;1.73;;;6.90;99.90;;;;;;4242632;27;20096;-58
2022/04/17 08:02:11;;;;;;;2.37;2.17;;;6.90;99.90;;;;;;4260930;27;20107;-60
2022/04/17 08:04:14;;;;;;;2.37;2.17;;;6.90;99.90;;;;;;4255587;27;20071;-53
2022/04/17 08:06:17;;;;;;;2.10;2.00;;;6.80;99.90;;;;;;4257140;27;20023;-51
2022/04/17 08:08:19;;;;;;;3.73;1.83;;;6.80;99.90;;;;;;4260920;27;20026;-58
2022/04/17 08:10:20;;;;;;;1.80;1.60;;;6.70;99.90;;;;;;4259679;27;20147;-64
2022/04/17 08:12:21;;;;;;;2.60;1.73;;;6.70;99.90;;;;;;4262082;27;20034;-55
2022/04/17 08:14:22;;;;;;;2.27;2.07;;;6.70;99.90;;;;;;4262114;27;20046;-57
2022/04/17 08:16:24;;;;;;;5.00;1.83;;;6.70;99.90;;;;;;4258650;27;20034;-57
2022/04/17 08:18:25;;;;;;;2.20;2.00;;;6.70;99.90;;;;;;4255479;27;20116;-58
2022/04/17 08:20:26;;;;;;;1.87;1.77;;;6.70;99.80;;;;;;4246251;27;20115;-60
2022/04/17 08:22:27;;;;;;;5.03;2.30;;;6.70;99.90;;;;;;4242964;27;20050;-57
2022/04/17 08:24:30;;;;;;;3.97;2.40;;;6.80;99.90;;;;;;4240439;27;20938;-66
2022/04/17 08:26:31;;;;;;;2.27;1.63;;;6.80;99.90;;;;;;4263589;27;20103;-61
2022/04/17 08:28:33;;;;;;;3.17;1.97;;;6.80;99.90;;;;;;4261778;27;20106;-67
2022/04/17 08:30:34;;;;;;;2.63;1.93;;;6.80;99.90;;;;;;4264482;27;20083;-60
2022/04/17 08:32:35;;;;;;;2.00;1.90;;;6.80;99.50;;;;;;4263147;27;20038;-60
2022/04/17 08:34:37;;;;;;;1.93;1.73;;;6.70;99.50;;;;;;4260490;27;20050;-57
2022/04/17 08:36:38;;;;;;;1.83;1.67;;;6.70;99.40;;;;;;4259042;27;20072;-59
2022/04/17 08:38:42;;;;;;;4.43;1.63;;;6.70;99.30;;;;;;4264822;27;20799;-59
2022/04/17 08:40:43;;;;;;;1.73;1.60;;;6.70;99.00;;;;;;4261002;27;20068;-61
2022/04/17 08:42:45;;;;;;;3.00;1.80;;;6.70;99.10;;;;;;4261326;27;20450;-61
2022/04/17 08:44:46;;;;;;;2.10;1.80;;;6.80;99.10;;;;;;4264200;27;20026;-61
2022/04/17 08:46:48;;;;;;;1.77;1.67;;;6.80;98.50;;;;;;4259105;27;20855;-59
2022/04/17 08:48:51;;;;;;;2.00;1.80;;;6.90;98.90;;;;;;4260558;27;20046;-57
2022/04/17 08:50:53;;;;;;;1.77;1.60;;;6.90;98.20;;;;;;4264129;27;20894;-52
2022/04/17 08:52:57;;;;;;;1.80;1.70;;;6.90;97.60;;;;;;4244799;27;20051;-57
2022/04/17 08:54:59;;;;;;;1.90;1.80;;;7.10;98.40;;;;;;4265006;27;20110;-51
2022/04/17 08:57:04;;;;;;;2.40;2.00;;;7.10;97.70;;;;;;4261193;27;20030;-52
2022/04/17 08:59:05;;;;;;;1.80;1.53;;;7.20;97.60;;;;;;4260051;27;20043;-57
2022/04/17 09:01:07;;;;;;;2.03;1.70;;;7.20;97.20;;;;;;4267381;27;20035;-58
2022/04/17 09:03:09;;;;;;;6.93;1.87;;;7.20;97.60;;;;;;4265232;27;20547;-60
2022/04/17 09:05:12;;;;;;;1.73;1.60;;;7.20;97.40;;;;;;4263795;27;20115;-55
2022/04/17 09:07:13;;;;;;;3.27;1.70;;;7.30;97.20;;;;;;4261147;27;20095;-57
2022/04/17 09:09:20;;;;;;;1.70;1.60;;;7.30;97.30;;;;;;4267458;27;20787;-56
2022/04/17 09:11:25;;;;;;;2.13;1.93;;;7.30;96.60;;;;;;4256681;27;20104;-57
2022/04/17 09:13:33;;;;;;;1.90;1.80;;;7.30;97.10;;;;;;4259114;27;20038;-58
2022/04/17 09:15:37;;;;;;;1.40;1.30;;;7.30;96.10;;;;;;4260573;27;20034;-57
2022/04/17 09:17:38;;;;;;;4.00;1.53;;;7.30;95.80;;;;;;4258606;27;20200;-58
2022/04/17 09:19:39;;;;;;;2.63;1.43;;;7.30;96.10;;;;;;4258790;27;20142;-50
2022/04/17 09:21:41;;;;;;;1.77;1.67;;;7.40;96.00;;;;;;4266487;27;20046;-63
2022/04/17 09:23:42;;;;;;;1.93;1.73;;;7.60;95.40;;;;;;4259036;27;20083;-56
2022/04/17 09:25:48;;;;;;;3.20;1.80;;;7.70;95.30;;;;;;4267395;27;20186;-58
2022/04/17 09:27:56;;;;;;;1.60;1.50;;;7.70;94.70;;;;;;4260020;27;20023;-57
2022/04/17 09:29:57;;;;;;;1.80;1.70;;;7.60;93.50;;;;;;4266147;27;20038;-62
2022/04/17 09:32:03;;;;;;;1.70;1.33;;;7.50;94.40;;;;;;4260520;27;20027;-61
2022/04/17 09:34:08;;;;;;;2.17;1.60;;;7.50;94.40;;;;;;4261069;27;20090;-58
2022/04/17 09:36:09;;;;;;;1.90;1.70;;;7.40;94.00;;;;;;4265096;27;20034;-60
2022/04/17 09:38:10;;;;;;;1.73;1.50;;;7.40;94.30;;;;;;4262320;27;20438;-56
2022/04/17 09:40:12;;;;;;;4.07;2.77;;;7.50;94.50;;;;;;4257769;27;20404;-59
2022/04/17 09:42:19;;;;;;;2.13;1.97;;;7.50;93.80;;;;;;4256676;27;20071;-58
2022/04/17 09:44:37;;;;;;;1.90;1.60;;;7.60;94.20;;;;;;4258402;27;20035;-63
2022/04/17 09:46:56;;;;;;;1.73;1.63;;;7.60;93.50;;;;;;4257986;27;20039;-56
2022/04/17 09:48:57;;;;;;;3.00;1.57;;;7.50;93.40;;;;;;4258021;27;20046;-56
2022/04/17 09:51:00;;;;;;;1.77;1.67;;;7.50;93.40;;;;;;4258223;27;20031;-62
2022/04/17 09:53:05;;;;;;;1.50;1.40;;;7.50;94.20;;;;;;4260805;27;20080;-59
2022/04/17 09:55:07;;;;;;;1.50;1.40;;;7.60;94.00;;;;;;4269880;27;20071;-62
2022/04/17 09:57:09;;;;;;;2.43;1.80;;;7.60;93.90;;;;;;4258921;27;20042;-60
2022/04/17 09:59:21;;;;;;;2.73;1.43;;;7.70;93.40;;;;;;4258880;27;20068;-67
2022/04/17 10:01:23;;;;;;;1.60;1.50;;;7.60;92.80;;;;;;4259159;27;20023;-59
2022/04/17 10:03:24;;;;;;;2.20;2.00;;;7.60;93.10;;;;;;4258124;27;20075;-62
2022/04/17 10:05:25;;;;;;;3.10;1.93;;;7.70;93.60;;;;;;4276579;27;20434;-69
2022/04/17 10:07:28;;;;;;;2.57;1.70;;;7.80;92.70;;;;;;4275019;27;20420;-57
2022/04/17 10:09:29;;;;;;;2.53;1.70;;;7.80;93.10;;;;;;4270216;27;20074;-57
2022/04/17 10:11:32;;;;;;;2.00;1.80;;;7.90;93.00;;;;;;4257677;27;20372;-60
2022/04/17 10:13:35;;;;;;;2.57;1.60;;;7.90;93.20;;;;;;4259046;27;20030;-57
2022/04/17 10:15:37;;;;;;;1.83;1.70;;;8.10;93.40;;;;;;4261783;27;20050;-58
2022/04/17 10:17:44;;;;;;;1.77;1.60;;;8.20;93.00;;;;;;4258245;27;20115;-58
2022/04/17 10:19:47;;;;;;;4.17;2.50;;;8.30;92.70;;;;;;4267688;27;20023;-55
2022/04/17 10:21:49;;;;;;;6.43;3.53;;;8.50;93.00;;;;;;4268564;27;20046;-53
2022/04/17 10:23:59;;;;;;;3.90;2.77;;;8.50;92.10;;;;;;4257950;27;20450;-59
2022/04/17 10:26:03;;;;;;;4.23;2.23;;;8.30;91.50;;;;;;4258749;27;20682;-58
2022/04/17 10:28:08;;;;;;;1.43;1.33;;;8.10;91.80;;;;;;4269271;27;20406;-55
2022/04/17 10:30:23;;;;;;;2.57;2.03;;;7.90;91.90;;;;;;4255412;27;20038;-63
2022/04/17 10:32:38;;;;;;;1.97;1.77;;;7.90;91.90;;;;;;4274680;27;20074;-62
2022/04/17 10:34:43;;;;;;;2.13;1.80;;;8.10;91.50;;;;;;4266915;27;20130;-58
2022/04/17 10:37:05;;;;;;;1.50;1.40;;;8.30;91.70;;;;;;4258493;27;20038;-61
2022/04/17 10:39:18;;;;;;;2.30;1.80;;;8.30;90.20;;;;;;4247571;27;20079;-58
2022/04/17 10:41:19;;;;;;;3.40;1.80;;;8.40;90.40;;;;;;4258082;27;20042;-58
2022/04/17 10:43:21;;;;;;;1.93;1.70;;;8.50;91.10;;;;;;4258358;27;20087;-61
2022/04/17 10:45:23;;;;;;;2.20;1.93;;;8.50;90.90;;;;;;4268444;27;21629;-63
2022/04/17 10:47:25;;;;;;;1.83;1.67;;;8.70;90.80;;;;;;4253517;27;20497;-65
2022/04/17 10:49:29;;;;;;;1.67;1.57;;;8.80;90.50;;;;;;4261149;27;20103;-60
2022/04/17 10:51:36;;;;;;;7.93;2.53;;;8.80;90.10;;;;;;4256119;27;20046;-61
2022/04/17 10:54:10;;;;;;;1.80;1.53;;;8.80;89.20;;;;;;4244793;27;20055;-58
2022/04/17 10:56:16;;;;;;;1.77;1.57;;;8.70;87.20;;;;;;4237162;27;20039;-59
2022/04/17 10:58:50;;;;;;;2.83;1.83;;;8.60;88.50;;;;;;4267446;27;20022;-60
2022/04/17 11:00:51;;;;;;;1.70;1.60;;;8.70;86.70;;;;;;4275037;27;20034;-60
2022/04/17 11:02:53;;;;;;;3.30;1.80;;;8.80;87.90;;;;;;4273782;27;20022;-60